sensor_id;sensor_type;location;lat;lon;timestamp;P1;durP1;ratioP1;P2;durP2;ratioP2
60908;SDS011;46780;48.128;-1.704;2022-07-17T00:02:02;17.88;;;6.57;;
60908;SDS011;46780;48.128;-1.704;2022-07-17T00:04:30;16.17;;;6.53;;
60908;SDS011;46780;48.128;-1.704;2022-07-17T00:06:56;13.55;;;6.65;;
60908;SDS011;46780;48.128;-1.704;2022-07-17T00:09:23;14.95;;;6.20;;
60908;SDS011;46780;48.128;-1.704;2022-07-17T00:11:49;14.10;;;6.10;;
60908;SDS011;46780;48.128;-1.704;2022-07-17T00:14:16;17.38;;;6.70;;
60908;SDS011;46780;48.128;-1.704;2022-07-17T00:16:42;18.52;;;6.38;;
60908;SDS011;46780;48.128;-1.704;2022-07-17T00:19:09;16.05;;;6.13;;
60908;SDS011;46780;48.128;-1.704;2022-07-17T00:21:37;17.33;;;6.40;;
60908;SDS011;46780;48.128;-1.704;2022-07-17T00:24:03;15.40;;;6.45;;
60908;SDS011;46780;48.128;-1.704;2022-07-17T00:26:30;18.15;;;6.32;;
60908;SDS011;46780;48.128;-1.704;2022-07-17T00:28:57;20.02;;;6.90;;
60908;SDS011;46780;48.128;-1.704;2022-07-17T00:31:23;17.25;;;6.47;;
60908;SDS011;46780;48.128;-1.704;2022-07-17T00:33:50;17.77;;;6.25;;
60908;SDS011;46780;48.128;-1.704;2022-07-17T00:36:16;20.42;;;6.63;;
60908;SDS011;46780;48.128;-1.704;2022-07-17T00:38:44;16.27;;;6.70;;
60908;SDS011;46780;48.128;-1.704;2022-07-17T00:41:13;18.33;;;6.93;;
60908;SDS011;46780;48.128;-1.704;2022-07-17T00:43:40;14.45;;;7.13;;
60908;SDS011;46780;48.128;-1.704;2022-07-17T00:46:06;20.90;;;7.95;;
60908;SDS011;46780;48.128;-1.704;2022-07-17T00:48:33;19.45;;;7.35;;
60908;SDS011;46780;48.128;-1.704;2022-07-17T00:50:59;18.33;;;6.53;;
60908;SDS011;46780;48.128;-1.704;2022-07-17T00:53:26;20.52;;;6.65;;
60908;SDS011;46780;48.128;-1.704;2022-07-17T00:55:55;19.70;;;6.70;;
60908;SDS011;46780;48.128;-1.704;2022-07-17T00:58:23;23.08;;;7.05;;
60908;SDS011;46780;48.128;-1.704;2022-07-17T01:00:51;15.90;;;6.35;;
60908;SDS011;46780;48.128;-1.704;2022-07-17T01:03:19;15.63;;;6.22;;
60908;SDS011;46780;48.128;-1.704;2022-07-17T01:05:47;19.05;;;7.20;;
60908;SDS011;46780;48.128;-1.704;2022-07-17T01:08:14;17.75;;;6.75;;
60908;SDS011;46780;48.128;-1.704;2022-07-17T01:10:41;16.13;;;6.30;;
60908;SDS011;46780;48.128;-1.704;2022-07-17T01:13:09;14.70;;;6.40;;
60908;SDS011;46780;48.128;-1.704;2022-07-17T01:15:36;15.45;;;6.60;;
60908;SDS011;46780;48.128;-1.704;2022-07-17T01:18:04;15.45;;;6.80;;
60908;SDS011;46780;48.128;-1.704;2022-07-17T01:20:31;16.60;;;6.82;;
60908;SDS011;46780;48.128;-1.704;2022-07-17T01:22:59;15.15;;;6.47;;
60908;SDS011;46780;48.128;-1.704;2022-07-17T01:25:26;17.60;;;6.72;;
60908;SDS011;46780;48.128;-1.704;2022-07-17T01:27:52;19.77;;;6.80;;
60908;SDS011;46780;48.128;-1.704;2022-07-17T01:30:19;18.65;;;6.50;;
60908;SDS011;46780;48.128;-1.704;2022-07-17T01:32:46;14.90;;;6.65;;
60908;SDS011;46780;48.128;-1.704;2022-07-17T01:35:13;18.00;;;6.65;;
60908;SDS011;46780;48.128;-1.704;2022-07-17T01:37:40;14.15;;;6.78;;
60908;SDS011;46780;48.128;-1.704;2022-07-17T01:40:10;18.13;;;6.53;;
60908;SDS011;46780;48.128;-1.704;2022-07-17T01:42:38;17.73;;;5.75;;
60908;SDS011;46780;48.128;-1.704;2022-07-17T01:45:07;16.13;;;6.70;;
60908;SDS011;46780;48.128;-1.704;2022-07-17T01:47:34;14.32;;;5.97;;
60908;SDS011;46780;48.128;-1.704;2022-07-17T01:50:01;14.93;;;6.80;;
60908;SDS011;46780;48.128;-1.704;2022-07-17T01:52:33;17.08;;;6.70;;
60908;SDS011;46780;48.128;-1.704;2022-07-17T01:55:01;15.88;;;6.38;;
60908;SDS011;46780;48.128;-1.704;2022-07-17T01:57:29;16.85;;;7.13;;
60908;SDS011;46780;48.128;-1.704;2022-07-17T01:59:56;14.27;;;6.68;;
60908;SDS011;46780;48.128;-1.704;2022-07-17T02:02:22;16.25;;;6.72;;
60908;SDS011;46780;48.128;-1.704;2022-07-17T02:04:49;16.50;;;6.60;;
60908;SDS011;46780;48.128;-1.704;2022-07-17T02:07:15;17.17;;;6.63;;
60908;SDS011;46780;48.128;-1.704;2022-07-17T02:09:41;16.45;;;6.60;;
60908;SDS011;46780;48.128;-1.704;2022-07-17T02:12:08;21.55;;;7.05;;
60908;SDS011;46780;48.128;-1.704;2022-07-17T02:14:36;17.70;;;7.00;;
60908;SDS011;46780;48.128;-1.704;2022-07-17T02:17:02;16.55;;;6.93;;
60908;SDS011;46780;48.128;-1.704;2022-07-17T02:19:29;15.98;;;6.40;;
60908;SDS011;46780;48.128;-1.704;2022-07-17T02:21:55;17.63;;;6.88;;
60908;SDS011;46780;48.128;-1.704;2022-07-17T02:24:22;16.58;;;6.50;;
60908;SDS011;46780;48.128;-1.704;2022-07-17T02:26:48;15.65;;;6.55;;
60908;SDS011;46780;48.128;-1.704;2022-07-17T02:29:15;18.55;;;6.75;;
60908;SDS011;46780;48.128;-1.704;2022-07-17T02:31:42;17.42;;;7.28;;
60908;SDS011;46780;48.128;-1.704;2022-07-17T02:34:09;18.05;;;6.82;;
60908;SDS011;46780;48.128;-1.704;2022-07-17T02:36:35;16.23;;;6.18;;
60908;SDS011;46780;48.128;-1.704;2022-07-17T02:39:02;14.45;;;6.53;;
60908;SDS011;46780;48.128;-1.704;2022-07-17T02:41:29;15.07;;;7.00;;
60908;SDS011;46780;48.128;-1.704;2022-07-17T02:43:55;19.52;;;6.45;;
60908;SDS011;46780;48.128;-1.704;2022-07-17T02:46:22;21.40;;;6.93;;
60908;SDS011;46780;48.128;-1.704;2022-07-17T02:48:49;15.63;;;6.60;;
60908;SDS011;46780;48.128;-1.704;2022-07-17T02:51:16;17.13;;;6.80;;
60908;SDS011;46780;48.128;-1.704;2022-07-17T02:53:42;14.18;;;6.63;;
60908;SDS011;46780;48.128;-1.704;2022-07-17T02:56:09;20.23;;;6.72;;
60908;SDS011;46780;48.128;-1.704;2022-07-17T02:58:35;15.52;;;6.90;;
60908;SDS011;46780;48.128;-1.704;2022-07-17T03:01:02;17.23;;;7.35;;
60908;SDS011;46780;48.128;-1.704;2022-07-17T03:03:29;14.98;;;6.45;;
60908;SDS011;46780;48.128;-1.704;2022-07-17T03:05:58;15.10;;;6.50;;
60908;SDS011;46780;48.128;-1.704;2022-07-17T03:08:26;13.80;;;6.78;;
60908;SDS011;46780;48.128;-1.704;2022-07-17T03:10:54;16.02;;;6.63;;
60908;SDS011;46780;48.128;-1.704;2022-07-17T03:13:22;17.23;;;7.00;;
60908;SDS011;46780;48.128;-1.704;2022-07-17T03:15:50;18.20;;;6.47;;
60908;SDS011;46780;48.128;-1.704;2022-07-17T03:18:18;18.58;;;6.55;;
60908;SDS011;46780;48.128;-1.704;2022-07-17T03:20:46;16.38;;;6.80;;
60908;SDS011;46780;48.128;-1.704;2022-07-17T03:23:16;16.67;;;6.57;;
60908;SDS011;46780;48.128;-1.704;2022-07-17T03:25:43;15.65;;;6.88;;
60908;SDS011;46780;48.128;-1.704;2022-07-17T03:28:11;24.30;;;7.15;;
60908;SDS011;46780;48.128;-1.704;2022-07-17T03:30:40;17.42;;;6.90;;
60908;SDS011;46780;48.128;-1.704;2022-07-17T03:33:07;17.92;;;6.72;;
60908;SDS011;46780;48.128;-1.704;2022-07-17T03:35:34;17.98;;;7.13;;
60908;SDS011;46780;48.128;-1.704;2022-07-17T03:38:01;16.08;;;7.20;;
60908;SDS011;46780;48.128;-1.704;2022-07-17T03:40:29;21.45;;;6.57;;
60908;SDS011;46780;48.128;-1.704;2022-07-17T03:42:56;13.88;;;6.72;;
60908;SDS011;46780;48.128;-1.704;2022-07-17T03:45:23;14.85;;;6.72;;
60908;SDS011;46780;48.128;-1.704;2022-07-17T03:47:49;17.27;;;6.80;;
60908;SDS011;46780;48.128;-1.704;2022-07-17T03:50:16;17.75;;;6.75;;
60908;SDS011;46780;48.128;-1.704;2022-07-17T03:52:42;13.32;;;6.38;;
60908;SDS011;46780;48.128;-1.704;2022-07-17T03:55:09;17.80;;;6.50;;
60908;SDS011;46780;48.128;-1.704;2022-07-17T03:57:37;16.10;;;6.10;;
60908;SDS011;46780;48.128;-1.704;2022-07-17T04:00:04;15.13;;;5.85;;
60908;SDS011;46780;48.128;-1.704;2022-07-17T04:02:32;15.55;;;6.22;;
60908;SDS011;46780;48.128;-1.704;2022-07-17T04:04:59;17.90;;;6.35;;
60908;SDS011;46780;48.128;-1.704;2022-07-17T04:07:26;19.02;;;6.47;;
60908;SDS011;46780;48.128;-1.704;2022-07-17T04:09:54;19.42;;;6.45;;
60908;SDS011;46780;48.128;-1.704;2022-07-17T04:12:29;14.20;;;6.20;;
60908;SDS011;46780;48.128;-1.704;2022-07-17T04:14:57;19.77;;;6.18;;
60908;SDS011;46780;48.128;-1.704;2022-07-17T04:17:24;17.13;;;6.50;;
60908;SDS011;46780;48.128;-1.704;2022-07-17T04:19:51;14.20;;;6.25;;
60908;SDS011;46780;48.128;-1.704;2022-07-17T04:22:18;14.68;;;6.30;;
60908;SDS011;46780;48.128;-1.704;2022-07-17T04:24:44;16.88;;;6.05;;
60908;SDS011;46780;48.128;-1.704;2022-07-17T04:27:11;16.40;;;5.97;;
60908;SDS011;46780;48.128;-1.704;2022-07-17T04:29:38;21.73;;;6.35;;
60908;SDS011;46780;48.128;-1.704;2022-07-17T04:32:07;17.60;;;6.20;;
60908;SDS011;46780;48.128;-1.704;2022-07-17T04:34:33;22.77;;;6.22;;
60908;SDS011;46780;48.128;-1.704;2022-07-17T04:37:00;14.75;;;6.10;;
60908;SDS011;46780;48.128;-1.704;2022-07-17T04:39:29;15.73;;;6.50;;
60908;SDS011;46780;48.128;-1.704;2022-07-17T04:41:57;19.05;;;6.30;;
60908;SDS011;46780;48.128;-1.704;2022-07-17T04:44:23;17.70;;;6.22;;
60908;SDS011;46780;48.128;-1.704;2022-07-17T04:46:50;16.65;;;5.90;;
60908;SDS011;46780;48.128;-1.704;2022-07-17T04:49:18;15.85;;;6.15;;
60908;SDS011;46780;48.128;-1.704;2022-07-17T04:51:44;19.77;;;6.43;;
60908;SDS011;46780;48.128;-1.704;2022-07-17T04:54:10;17.38;;;6.25;;
60908;SDS011;46780;48.128;-1.704;2022-07-17T04:56:37;13.45;;;6.03;;
60908;SDS011;46780;48.128;-1.704;2022-07-17T04:59:03;16.17;;;6.72;;
60908;SDS011;46780;48.128;-1.704;2022-07-17T05:01:30;14.65;;;5.85;;
60908;SDS011;46780;48.128;-1.704;2022-07-17T05:03:56;15.68;;;6.43;;
60908;SDS011;46780;48.128;-1.704;2022-07-17T05:06:24;14.88;;;5.97;;
60908;SDS011;46780;48.128;-1.704;2022-07-17T05:08:51;15.45;;;6.47;;
60908;SDS011;46780;48.128;-1.704;2022-07-17T05:11:17;16.48;;;5.75;;
60908;SDS011;46780;48.128;-1.704;2022-07-17T05:13:44;12.93;;;6.00;;
60908;SDS011;46780;48.128;-1.704;2022-07-17T05:16:10;16.75;;;5.80;;
60908;SDS011;46780;48.128;-1.704;2022-07-17T05:18:37;14.25;;;5.82;;
60908;SDS011;46780;48.128;-1.704;2022-07-17T05:21:03;19.40;;;6.03;;
60908;SDS011;46780;48.128;-1.704;2022-07-17T05:23:31;18.35;;;6.32;;
60908;SDS011;46780;48.128;-1.704;2022-07-17T05:25:58;17.83;;;5.97;;
60908;SDS011;46780;48.128;-1.704;2022-07-17T05:28:24;21.15;;;6.30;;
60908;SDS011;46780;48.128;-1.704;2022-07-17T05:30:50;12.68;;;5.35;;
60908;SDS011;46780;48.128;-1.704;2022-07-17T05:33:17;15.43;;;5.70;;
60908;SDS011;46780;48.128;-1.704;2022-07-17T05:35:43;18.52;;;6.18;;
60908;SDS011;46780;48.128;-1.704;2022-07-17T05:38:10;17.55;;;6.22;;
60908;SDS011;46780;48.128;-1.704;2022-07-17T05:40:38;20.02;;;6.30;;
60908;SDS011;46780;48.128;-1.704;2022-07-17T05:43:04;13.45;;;5.85;;
60908;SDS011;46780;48.128;-1.704;2022-07-17T05:45:31;13.68;;;6.18;;
60908;SDS011;46780;48.128;-1.704;2022-07-17T05:47:57;14.02;;;5.97;;
60908;SDS011;46780;48.128;-1.704;2022-07-17T05:50:24;19.40;;;6.20;;
60908;SDS011;46780;48.128;-1.704;2022-07-17T05:52:51;13.27;;;6.25;;
60908;SDS011;46780;48.128;-1.704;2022-07-17T05:55:17;12.05;;;5.80;;
60908;SDS011;46780;48.128;-1.704;2022-07-17T05:57:45;13.40;;;5.78;;
60908;SDS011;46780;48.128;-1.704;2022-07-17T06:00:12;15.50;;;5.60;;
60908;SDS011;46780;48.128;-1.704;2022-07-17T06:02:39;23.35;;;6.00;;
60908;SDS011;46780;48.128;-1.704;2022-07-17T06:05:05;13.32;;;5.78;;
60908;SDS011;46780;48.128;-1.704;2022-07-17T06:07:32;17.55;;;6.32;;
60908;SDS011;46780;48.128;-1.704;2022-07-17T06:09:59;12.30;;;5.93;;
60908;SDS011;46780;48.128;-1.704;2022-07-17T06:12:25;17.17;;;6.05;;
60908;SDS011;46780;48.128;-1.704;2022-07-17T06:14:53;15.63;;;6.13;;
60908;SDS011;46780;48.128;-1.704;2022-07-17T06:17:20;14.73;;;5.85;;
60908;SDS011;46780;48.128;-1.704;2022-07-17T06:19:46;12.90;;;5.72;;
60908;SDS011;46780;48.128;-1.704;2022-07-17T06:22:13;14.88;;;6.13;;
60908;SDS011;46780;48.128;-1.704;2022-07-17T06:24:39;16.42;;;5.93;;
60908;SDS011;46780;48.128;-1.704;2022-07-17T06:27:05;17.02;;;6.20;;
60908;SDS011;46780;48.128;-1.704;2022-07-17T06:29:32;15.93;;;6.10;;
60908;SDS011;46780;48.128;-1.704;2022-07-17T06:32:00;15.02;;;6.00;;
60908;SDS011;46780;48.128;-1.704;2022-07-17T06:34:26;13.70;;;5.88;;
60908;SDS011;46780;48.128;-1.704;2022-07-17T06:36:53;18.27;;;6.65;;
60908;SDS011;46780;48.128;-1.704;2022-07-17T06:39:19;16.20;;;6.00;;
60908;SDS011;46780;48.128;-1.704;2022-07-17T06:41:46;12.60;;;5.78;;
60908;SDS011;46780;48.128;-1.704;2022-07-17T06:44:12;16.05;;;5.50;;
60908;SDS011;46780;48.128;-1.704;2022-07-17T06:46:39;19.25;;;6.30;;
60908;SDS011;46780;48.128;-1.704;2022-07-17T06:49:07;15.30;;;5.80;;
60908;SDS011;46780;48.128;-1.704;2022-07-17T06:51:33;17.15;;;6.10;;
60908;SDS011;46780;48.128;-1.704;2022-07-17T06:54:00;17.20;;;5.65;;
60908;SDS011;46780;48.128;-1.704;2022-07-17T06:56:26;15.27;;;6.10;;
60908;SDS011;46780;48.128;-1.704;2022-07-17T06:58:53;15.70;;;5.88;;
60908;SDS011;46780;48.128;-1.704;2022-07-17T07:01:19;12.27;;;6.00;;
60908;SDS011;46780;48.128;-1.704;2022-07-17T07:03:46;17.30;;;5.78;;
60908;SDS011;46780;48.128;-1.704;2022-07-17T07:06:14;15.82;;;6.03;;
60908;SDS011;46780;48.128;-1.704;2022-07-17T07:08:40;14.57;;;5.60;;
60908;SDS011;46780;48.128;-1.704;2022-07-17T07:11:07;14.52;;;5.95;;
60908;SDS011;46780;48.128;-1.704;2022-07-17T07:13:34;13.27;;;5.97;;
60908;SDS011;46780;48.128;-1.704;2022-07-17T07:16:01;16.85;;;5.82;;
60908;SDS011;46780;48.128;-1.704;2022-07-17T07:18:28;14.65;;;5.82;;
60908;SDS011;46780;48.128;-1.704;2022-07-17T07:20:54;13.77;;;5.82;;
60908;SDS011;46780;48.128;-1.704;2022-07-17T07:23:22;12.20;;;6.00;;
60908;SDS011;46780;48.128;-1.704;2022-07-17T07:25:48;10.27;;;5.50;;
60908;SDS011;46780;48.128;-1.704;2022-07-17T07:28:15;16.83;;;5.95;;
60908;SDS011;46780;48.128;-1.704;2022-07-17T07:30:42;16.15;;;5.43;;
60908;SDS011;46780;48.128;-1.704;2022-07-17T07:33:08;11.95;;;6.00;;
60908;SDS011;46780;48.128;-1.704;2022-07-17T07:35:35;14.73;;;5.68;;
60908;SDS011;46780;48.128;-1.704;2022-07-17T07:38:02;11.57;;;5.25;;
60908;SDS011;46780;48.128;-1.704;2022-07-17T07:40:30;13.07;;;5.53;;
60908;SDS011;46780;48.128;-1.704;2022-07-17T07:42:57;11.75;;;5.97;;
60908;SDS011;46780;48.128;-1.704;2022-07-17T07:45:24;15.63;;;5.80;;
60908;SDS011;46780;48.128;-1.704;2022-07-17T07:47:50;14.45;;;5.35;;
60908;SDS011;46780;48.128;-1.704;2022-07-17T07:50:17;11.23;;;5.05;;
60908;SDS011;46780;48.128;-1.704;2022-07-17T07:52:44;13.55;;;5.78;;
60908;SDS011;46780;48.128;-1.704;2022-07-17T07:55:12;13.90;;;5.70;;
60908;SDS011;46780;48.128;-1.704;2022-07-17T07:57:41;13.48;;;5.43;;
60908;SDS011;46780;48.128;-1.704;2022-07-17T08:00:08;11.05;;;5.43;;
60908;SDS011;46780;48.128;-1.704;2022-07-17T08:02:36;11.13;;;5.47;;
60908;SDS011;46780;48.128;-1.704;2022-07-17T08:05:03;12.48;;;5.38;;
60908;SDS011;46780;48.128;-1.704;2022-07-17T08:07:31;11.93;;;5.55;;
60908;SDS011;46780;48.128;-1.704;2022-07-17T08:09:59;14.00;;;5.45;;
60908;SDS011;46780;48.128;-1.704;2022-07-17T08:12:26;12.23;;;5.25;;
60908;SDS011;46780;48.128;-1.704;2022-07-17T08:14:54;17.02;;;5.82;;
60908;SDS011;46780;48.128;-1.704;2022-07-17T08:17:20;13.70;;;5.63;;
60908;SDS011;46780;48.128;-1.704;2022-07-17T08:19:47;11.75;;;5.53;;
60908;SDS011;46780;48.128;-1.704;2022-07-17T08:22:13;13.80;;;5.47;;
60908;SDS011;46780;48.128;-1.704;2022-07-17T08:24:40;12.45;;;5.40;;
60908;SDS011;46780;48.128;-1.704;2022-07-17T08:27:06;13.27;;;5.60;;
60908;SDS011;46780;48.128;-1.704;2022-07-17T08:29:32;12.63;;;5.70;;
60908;SDS011;46780;48.128;-1.704;2022-07-17T08:32:00;19.75;;;5.50;;
60908;SDS011;46780;48.128;-1.704;2022-07-17T08:34:27;15.27;;;5.43;;
60908;SDS011;46780;48.128;-1.704;2022-07-17T08:36:53;13.18;;;5.35;;
60908;SDS011;46780;48.128;-1.704;2022-07-17T08:39:20;11.63;;;5.50;;
60908;SDS011;46780;48.128;-1.704;2022-07-17T08:41:46;14.85;;;5.47;;
60908;SDS011;46780;48.128;-1.704;2022-07-17T08:44:13;13.73;;;5.53;;
60908;SDS011;46780;48.128;-1.704;2022-07-17T08:46:39;12.90;;;5.65;;
60908;SDS011;46780;48.128;-1.704;2022-07-17T08:49:08;12.70;;;5.07;;
60908;SDS011;46780;48.128;-1.704;2022-07-17T08:51:35;10.30;;;4.97;;
60908;SDS011;46780;48.128;-1.704;2022-07-17T08:54:02;11.82;;;5.28;;
60908;SDS011;46780;48.128;-1.704;2022-07-17T08:56:28;11.90;;;5.00;;
60908;SDS011;46780;48.128;-1.704;2022-07-17T08:58:55;10.77;;;5.13;;
60908;SDS011;46780;48.128;-1.704;2022-07-17T09:01:22;14.50;;;5.30;;
60908;SDS011;46780;48.128;-1.704;2022-07-17T09:03:55;14.90;;;5.25;;
60908;SDS011;46780;48.128;-1.704;2022-07-17T09:06:25;11.07;;;4.80;;
60908;SDS011;46780;48.128;-1.704;2022-07-17T09:09:05;14.30;;;5.30;;
60908;SDS011;46780;48.128;-1.704;2022-07-17T09:11:43;18.25;;;5.22;;
60908;SDS011;46780;48.128;-1.704;2022-07-17T09:14:10;11.93;;;5.15;;
60908;SDS011;46780;48.128;-1.704;2022-07-17T09:16:47;12.88;;;4.97;;
60908;SDS011;46780;48.128;-1.704;2022-07-17T09:19:23;13.00;;;4.70;;
60908;SDS011;46780;48.128;-1.704;2022-07-17T09:21:52;12.20;;;4.90;;
60908;SDS011;46780;48.128;-1.704;2022-07-17T09:24:37;10.50;;;4.80;;
60908;SDS011;46780;48.128;-1.704;2022-07-17T09:27:06;15.38;;;5.07;;
60908;SDS011;46780;48.128;-1.704;2022-07-17T09:29:32;11.95;;;5.07;;
60908;SDS011;46780;48.128;-1.704;2022-07-17T09:31:59;13.55;;;5.05;;
60908;SDS011;46780;48.128;-1.704;2022-07-17T09:34:25;14.02;;;4.60;;
60908;SDS011;46780;48.128;-1.704;2022-07-17T09:36:59;12.05;;;4.72;;
60908;SDS011;46780;48.128;-1.704;2022-07-17T09:39:33;13.23;;;4.70;;
60908;SDS011;46780;48.128;-1.704;2022-07-17T09:42:01;10.23;;;4.68;;
60908;SDS011;46780;48.128;-1.704;2022-07-17T09:44:27;11.40;;;4.60;;
60908;SDS011;46780;48.128;-1.704;2022-07-17T09:46:53;12.43;;;4.47;;
60908;SDS011;46780;48.128;-1.704;2022-07-17T09:49:20;12.60;;;4.55;;
60908;SDS011;46780;48.128;-1.704;2022-07-17T09:51:51;15.35;;;4.93;;
60908;SDS011;46780;48.128;-1.704;2022-07-17T09:54:21;12.07;;;4.30;;
60908;SDS011;46780;48.128;-1.704;2022-07-17T09:56:49;10.17;;;4.47;;
60908;SDS011;46780;48.128;-1.704;2022-07-17T09:59:17;12.18;;;4.18;;
60908;SDS011;46780;48.128;-1.704;2022-07-17T10:01:44;10.55;;;3.95;;
60908;SDS011;46780;48.128;-1.704;2022-07-17T10:04:11;12.05;;;4.40;;
60908;SDS011;46780;48.128;-1.704;2022-07-17T10:06:38;11.10;;;4.32;;
60908;SDS011;46780;48.128;-1.704;2022-07-17T10:09:04;13.25;;;4.00;;
60908;SDS011;46780;48.128;-1.704;2022-07-17T10:11:33;10.88;;;3.70;;
60908;SDS011;46780;48.128;-1.704;2022-07-17T10:14:02;11.80;;;4.10;;
60908;SDS011;46780;48.128;-1.704;2022-07-17T10:16:32;10.88;;;3.85;;
60908;SDS011;46780;48.128;-1.704;2022-07-17T10:18:59;14.75;;;4.00;;
60908;SDS011;46780;48.128;-1.704;2022-07-17T10:21:27;11.70;;;4.20;;
60908;SDS011;46780;48.128;-1.704;2022-07-17T10:24:08;12.85;;;3.85;;
60908;SDS011;46780;48.128;-1.704;2022-07-17T10:26:39;14.15;;;4.05;;
60908;SDS011;46780;48.128;-1.704;2022-07-17T10:29:07;9.10;;;3.83;;
60908;SDS011;46780;48.128;-1.704;2022-07-17T10:31:34;7.80;;;3.83;;
60908;SDS011;46780;48.128;-1.704;2022-07-17T10:34:02;11.38;;;4.32;;
60908;SDS011;46780;48.128;-1.704;2022-07-17T10:36:33;12.18;;;3.72;;
60908;SDS011;46780;48.128;-1.704;2022-07-17T10:39:11;10.00;;;3.80;;
60908;SDS011;46780;48.128;-1.704;2022-07-17T10:41:40;13.88;;;3.65;;
60908;SDS011;46780;48.128;-1.704;2022-07-17T10:44:07;7.43;;;3.20;;
60908;SDS011;46780;48.128;-1.704;2022-07-17T10:46:34;8.82;;;3.53;;
60908;SDS011;46780;48.128;-1.704;2022-07-17T10:49:01;10.60;;;3.88;;
60908;SDS011;46780;48.128;-1.704;2022-07-17T10:51:28;10.60;;;3.50;;
60908;SDS011;46780;48.128;-1.704;2022-07-17T10:53:55;9.88;;;3.58;;
60908;SDS011;46780;48.128;-1.704;2022-07-17T10:56:22;12.48;;;3.35;;
60908;SDS011;46780;48.128;-1.704;2022-07-17T10:58:51;11.75;;;3.65;;
60908;SDS011;46780;48.128;-1.704;2022-07-17T11:01:19;11.20;;;3.40;;
60908;SDS011;46780;48.128;-1.704;2022-07-17T11:03:47;8.88;;;3.58;;
60908;SDS011;46780;48.128;-1.704;2022-07-17T11:06:16;11.50;;;3.50;;
60908;SDS011;46780;48.128;-1.704;2022-07-17T11:08:44;11.35;;;3.33;;
60908;SDS011;46780;48.128;-1.704;2022-07-17T11:11:12;10.88;;;3.90;;
60908;SDS011;46780;48.128;-1.704;2022-07-17T11:13:41;8.63;;;3.28;;
60908;SDS011;46780;48.128;-1.704;2022-07-17T11:16:10;9.35;;;3.60;;
60908;SDS011;46780;48.128;-1.704;2022-07-17T11:18:36;11.95;;;3.78;;
60908;SDS011;46780;48.128;-1.704;2022-07-17T11:21:03;11.30;;;3.30;;
60908;SDS011;46780;48.128;-1.704;2022-07-17T11:23:31;10.77;;;3.80;;
60908;SDS011;46780;48.128;-1.704;2022-07-17T11:26:00;10.48;;;3.58;;
60908;SDS011;46780;48.128;-1.704;2022-07-17T11:28:37;13.57;;;3.58;;
60908;SDS011;46780;48.128;-1.704;2022-07-17T11:31:16;9.60;;;3.40;;
60908;SDS011;46780;48.128;-1.704;2022-07-17T11:33:51;16.00;;;3.50;;
60908;SDS011;46780;48.128;-1.704;2022-07-17T11:36:22;13.70;;;3.78;;
60908;SDS011;46780;48.128;-1.704;2022-07-17T11:38:49;12.25;;;3.47;;
60908;SDS011;46780;48.128;-1.704;2022-07-17T11:41:17;9.13;;;3.40;;
60908;SDS011;46780;48.128;-1.704;2022-07-17T11:43:43;11.30;;;3.50;;
60908;SDS011;46780;48.128;-1.704;2022-07-17T11:46:10;9.75;;;3.58;;
60908;SDS011;46780;48.128;-1.704;2022-07-17T11:48:38;11.60;;;3.63;;
60908;SDS011;46780;48.128;-1.704;2022-07-17T11:51:06;16.00;;;3.50;;
60908;SDS011;46780;48.128;-1.704;2022-07-17T11:53:33;9.73;;;3.30;;
60908;SDS011;46780;48.128;-1.704;2022-07-17T11:56:03;10.15;;;3.30;;
60908;SDS011;46780;48.128;-1.704;2022-07-17T12:01:06;10.80;;;3.25;;
60908;SDS011;46780;48.128;-1.704;2022-07-17T12:03:32;8.43;;;3.30;;
60908;SDS011;46780;48.128;-1.704;2022-07-17T12:06:00;12.20;;;3.42;;
60908;SDS011;46780;48.128;-1.704;2022-07-17T12:08:26;8.13;;;3.28;;
60908;SDS011;46780;48.128;-1.704;2022-07-17T12:11:00;16.15;;;3.35;;
60908;SDS011;46780;48.128;-1.704;2022-07-17T12:13:37;7.72;;;3.35;;
60908;SDS011;46780;48.128;-1.704;2022-07-17T12:16:17;8.60;;;3.45;;
60908;SDS011;46780;48.128;-1.704;2022-07-17T12:18:54;11.52;;;3.90;;
60908;SDS011;46780;48.128;-1.704;2022-07-17T12:21:27;11.30;;;3.88;;
60908;SDS011;46780;48.128;-1.704;2022-07-17T12:23:57;13.30;;;3.78;;
60908;SDS011;46780;48.128;-1.704;2022-07-17T12:26:26;9.93;;;3.60;;
60908;SDS011;46780;48.128;-1.704;2022-07-17T12:28:53;10.43;;;3.38;;
60908;SDS011;46780;48.128;-1.704;2022-07-17T12:31:20;9.73;;;3.50;;
60908;SDS011;46780;48.128;-1.704;2022-07-17T12:33:46;8.80;;;3.03;;
60908;SDS011;46780;48.128;-1.704;2022-07-17T12:36:13;9.13;;;3.38;;
60908;SDS011;46780;48.128;-1.704;2022-07-17T12:38:40;9.00;;;3.22;;
60908;SDS011;46780;48.128;-1.704;2022-07-17T12:41:07;10.00;;;3.08;;
60908;SDS011;46780;48.128;-1.704;2022-07-17T12:43:34;10.07;;;3.30;;
60908;SDS011;46780;48.128;-1.704;2022-07-17T12:46:01;6.95;;;3.30;;
60908;SDS011;46780;48.128;-1.704;2022-07-17T12:48:27;11.18;;;3.40;;
60908;SDS011;46780;48.128;-1.704;2022-07-17T12:50:54;10.48;;;3.25;;
60908;SDS011;46780;48.128;-1.704;2022-07-17T12:53:20;7.60;;;3.10;;
60908;SDS011;46780;48.128;-1.704;2022-07-17T12:55:48;11.35;;;3.30;;
60908;SDS011;46780;48.128;-1.704;2022-07-17T12:58:15;9.27;;;2.80;;
60908;SDS011;46780;48.128;-1.704;2022-07-17T13:00:41;9.85;;;3.47;;
60908;SDS011;46780;48.128;-1.704;2022-07-17T13:03:08;10.82;;;3.47;;
60908;SDS011;46780;48.128;-1.704;2022-07-17T13:05:35;7.80;;;3.15;;
60908;SDS011;46780;48.128;-1.704;2022-07-17T13:08:01;11.52;;;3.20;;
60908;SDS011;46780;48.128;-1.704;2022-07-17T13:10:28;9.00;;;3.28;;
60908;SDS011;46780;48.128;-1.704;2022-07-17T13:12:56;10.07;;;3.30;;
60908;SDS011;46780;48.128;-1.704;2022-07-17T13:15:22;10.90;;;3.40;;
60908;SDS011;46780;48.128;-1.704;2022-07-17T13:17:49;6.88;;;3.20;;
60908;SDS011;46780;48.128;-1.704;2022-07-17T13:20:15;9.55;;;3.20;;
60908;SDS011;46780;48.128;-1.704;2022-07-17T13:22:42;9.93;;;3.42;;
60908;SDS011;46780;48.128;-1.704;2022-07-17T13:25:09;8.98;;;3.35;;
60908;SDS011;46780;48.128;-1.704;2022-07-17T13:27:35;9.40;;;3.40;;
60908;SDS011;46780;48.128;-1.704;2022-07-17T13:30:04;8.73;;;3.47;;
60908;SDS011;46780;48.128;-1.704;2022-07-17T13:32:31;9.32;;;3.53;;
60908;SDS011;46780;48.128;-1.704;2022-07-17T13:34:58;11.18;;;3.80;;
60908;SDS011;46780;48.128;-1.704;2022-07-17T13:37:24;10.05;;;3.30;;
60908;SDS011;46780;48.128;-1.704;2022-07-17T13:39:51;8.38;;;3.50;;
60908;SDS011;46780;48.128;-1.704;2022-07-17T13:42:17;8.18;;;3.53;;
60908;SDS011;46780;48.128;-1.704;2022-07-17T13:44:44;9.77;;;3.70;;
60908;SDS011;46780;48.128;-1.704;2022-07-17T13:47:12;11.27;;;3.95;;
60908;SDS011;46780;48.128;-1.704;2022-07-17T13:49:38;7.82;;;3.63;;
60908;SDS011;46780;48.128;-1.704;2022-07-17T13:52:05;7.70;;;3.40;;
60908;SDS011;46780;48.128;-1.704;2022-07-17T13:54:32;11.18;;;4.00;;
60908;SDS011;46780;48.128;-1.704;2022-07-17T13:56:58;8.32;;;3.60;;
60908;SDS011;46780;48.128;-1.704;2022-07-17T13:59:25;14.95;;;3.72;;
60908;SDS011;46780;48.128;-1.704;2022-07-17T14:01:52;8.63;;;3.75;;
60908;SDS011;46780;48.128;-1.704;2022-07-17T14:04:19;10.73;;;3.85;;
60908;SDS011;46780;48.128;-1.704;2022-07-17T14:06:46;14.32;;;3.55;;
60908;SDS011;46780;48.128;-1.704;2022-07-17T14:09:12;14.57;;;3.95;;
60908;SDS011;46780;48.128;-1.704;2022-07-17T14:11:39;9.52;;;3.70;;
60908;SDS011;46780;48.128;-1.704;2022-07-17T14:14:05;12.85;;;3.80;;
60908;SDS011;46780;48.128;-1.704;2022-07-17T14:16:32;10.25;;;3.58;;
60908;SDS011;46780;48.128;-1.704;2022-07-17T14:18:59;7.78;;;3.50;;
60908;SDS011;46780;48.128;-1.704;2022-07-17T14:21:27;12.25;;;3.95;;
60908;SDS011;46780;48.128;-1.704;2022-07-17T14:26:22;8.85;;;3.60;;
60908;SDS011;46780;48.128;-1.704;2022-07-17T14:28:49;9.60;;;4.10;;
60908;SDS011;46780;48.128;-1.704;2022-07-17T14:31:16;9.45;;;3.72;;